This is the latest recevied weather packets stored in our database for station/object WA6OOO. If no packets are shown the sender has not sent any weather packets the latest 10 day(s).
| Time | Temp. | Humidity | Pressure | Rain* | Wind** | Luminosity | Snow |
|---|---|---|---|---|---|---|---|
| 1777406503 | 19.44° C | 50% | 1020.4 hPa | 0 mm | - | 785 W/m² | - |
| 1777406199 | 18.89° C | 52% | 1020.3 hPa | 0 mm | - | 783 W/m² | - |
| 1777405897 | 19.44° C | 51% | 1020.3 hPa | 0 mm | - | 783 W/m² | - |
| 1777405594 | 19.44° C | 54% | 1020.3 hPa | 0 mm | - | 782 W/m² | - |
| 1777405292 | 18.89° C | 55% | 1020.6 hPa | 0 mm | - | 781 W/m² | - |
| 1777404986 | 18.89° C | 55% | 1020.4 hPa | 0 mm | - | 780 W/m² | - |
| 1777404686 | 18.89° C | 56% | 1020.5 hPa | 0 mm | - | 780 W/m² | - |
| 1777404382 | 18.89° C | 57% | 1020.6 hPa | 0 mm | - | 778 W/m² | - |
| 1777404080 | 18.89° C | 55% | 1020.7 hPa | 0 mm | - | 777 W/m² | - |
| 1777403775 | 18.33° C | 57% | 1020.6 hPa | 0 mm | - | 774 W/m² | - |
| 1777403474 | 18.89° C | 56% | 1020.7 hPa | 0 mm | - | 773 W/m² | - |
| 1777403174 | 19.44° C | 55% | 1020.6 hPa | 0 mm | - | 770 W/m² | - |
| 1777402869 | 19.44° C | 55% | 1020.9 hPa | 0 mm | - | 767 W/m² | - |
| 1777402566 | 18.33° C | 58% | 1020.7 hPa | 0 mm | - | 765 W/m² | - |
| 1777402263 | 19.44° C | 56% | 1021 hPa | 0 mm | - | 761 W/m² | - |
| 1777401958 | 19.44° C | 56% | 1020.8 hPa | 0 mm | - | 755 W/m² | - |
| 1777401657 | 18.89° C | 57% | 1021 hPa | 0 mm | - | 749 W/m² | - |
| 1777401355 | 18.89° C | 57% | 1020.9 hPa | 0 mm | - | 744 W/m² | - |
| 1777401050 | 19.44° C | 55% | 1020.8 hPa | 0 mm | - | 739 W/m² | - |
| 1777400746 | 19.44° C | 56% | 1020.9 hPa | 0 mm | - | 731 W/m² | - |
| 1777400444 | 19.44° C | 55% | 1020.9 hPa | 0 mm | - | 722 W/m² | - |
| 1777400144 | 19.44° C | 56% | 1021.1 hPa | 0 mm | - | 717 W/m² | - |
| 1777399841 | 19.44° C | 54% | 1020.9 hPa | 0 mm | - | 709 W/m² | - |
| 1777399538 | 20° C | 54% | 1021.3 hPa | 0 mm | - | 701 W/m² | - |
| 1777399235 | 19.44° C | 55% | 1020.9 hPa | 0 mm | - | 689 W/m² | - |
* Rain latest hour (hover to see other rain measurements)
** Current wind speed in m/s (hover to see current wind gust speed)